Time;durP1;ratioP1;P1;durP2;ratioP2;P2;SDS_P1;SDS_P2;PMS_P1;PMS_P2;Temp;Humidity;BMP_temperature;BMP_pressure;BME280_temperature;BME280_humidity;BME280_pressure;Samples;Min_cycle;Max_cycle;Signal;HPM_P1;HPM_P2
2021/11/05 00:00:12;;;;;;;12.73;6.60;;;;;;;;;;5031846;28;20049;-59
2021/11/05 00:02:39;;;;;;;10.88;5.95;;;;;;;;;;5032256;28;20067;-60
2021/11/05 00:05:07;;;;;;;10.88;5.60;;;;;;;;;;5031785;28;20052;-59
2021/11/05 00:07:34;;;;;;;11.15;5.63;;;;;;;;;;5032587;28;20422;-61
2021/11/05 00:10:01;;;;;;;10.55;5.80;;;;;;;;;;5034957;28;20461;-61
2021/11/05 00:12:28;;;;;;;12.23;6.07;;;;;;;;;;5035253;28;20049;-61
2021/11/05 00:14:55;;;;;;;11.35;5.75;;;;;;;;;;5035522;28;20100;-61
2021/11/05 00:17:23;;;;;;;11.05;5.65;;;;;;;;;;5036163;28;20049;-61
2021/11/05 00:19:50;;;;;;;11.75;5.80;;;;;;;;;;5035420;28;20079;-60
2021/11/05 00:22:17;;;;;;;9.95;5.18;;;;;;;;;;5035534;28;20055;-58
2021/11/05 00:24:44;;;;;;;11.35;6.13;;;;;;;;;;5035694;28;20136;-60
2021/11/05 00:27:11;;;;;;;14.18;6.38;;;;;;;;;;5035466;28;20513;-60
2021/11/05 00:29:38;;;;;;;13.77;6.95;;;;;;;;;;5035332;28;20057;-60
2021/11/05 00:32:07;;;;;;;12.45;6.45;;;;;;;;;;5035271;28;20085;-58
2021/11/05 00:34:35;;;;;;;11.85;6.90;;;;;;;;;;5035044;28;20056;-59
2021/11/05 00:37:02;;;;;;;12.98;6.47;;;;;;;;;;5035419;28;20403;-61
2021/11/05 00:39:29;;;;;;;13.48;6.95;;;;;;;;;;5035333;28;20055;-60
2021/11/05 00:41:56;;;;;;;12.68;6.70;;;;;;;;;;5035104;28;20481;-60
2021/11/05 00:44:23;;;;;;;12.73;7.22;;;;;;;;;;5035303;28;20136;-60
2021/11/05 00:46:50;;;;;;;12.35;6.75;;;;;;;;;;5034752;28;20057;-60
2021/11/05 00:49:17;;;;;;;13.07;6.88;;;;;;;;;;5035244;28;20128;-61
2021/11/05 00:51:46;;;;;;;14.82;7.95;;;;;;;;;;5034775;28;20056;-60
2021/11/05 00:54:13;;;;;;;10.88;6.82;;;;;;;;;;5035626;28;20045;-59
2021/11/05 00:56:40;;;;;;;13.38;7.03;;;;;;;;;;5034986;28;20052;-60
2021/11/05 00:59:07;;;;;;;12.02;6.30;;;;;;;;;;5035353;28;20049;-60
2021/11/05 01:01:34;;;;;;;11.52;6.10;;;;;;;;;;5034792;28;20418;-60
2021/11/05 01:04:01;;;;;;;12.00;5.90;;;;;;;;;;5035182;28;20059;-60
2021/11/05 01:06:28;;;;;;;12.27;6.63;;;;;;;;;;5034601;28;20056;-61
2021/11/05 01:08:56;;;;;;;12.65;6.65;;;;;;;;;;5034882;28;20061;-61
2021/11/05 01:11:23;;;;;;;11.75;6.47;;;;;;;;;;5034884;28;20055;-60
2021/11/05 01:13:50;;;;;;;12.10;6.63;;;;;;;;;;5034219;28;20088;-60
2021/11/05 01:16:17;;;;;;;13.23;6.35;;;;;;;;;;5034716;28;20051;-61
2021/11/05 01:18:45;;;;;;;14.88;6.85;;;;;;;;;;5034495;28;20049;-61
2021/11/05 01:21:12;;;;;;;12.38;6.72;;;;;;;;;;5033922;28;20053;-60
2021/11/05 01:23:39;;;;;;;13.63;6.95;;;;;;;;;;5034217;28;20088;-59
2021/11/05 01:26:07;;;;;;;12.57;5.80;;;;;;;;;;5034207;28;20085;-57
2021/11/05 01:28:34;;;;;;;10.80;6.32;;;;;;;;;;5033834;28;20050;-60
2021/11/05 01:31:01;;;;;;;12.95;6.35;;;;;;;;;;5033930;28;20049;-59
2021/11/05 01:33:29;;;;;;;11.73;6.18;;;;;;;;;;5033898;28;20487;-56
2021/11/05 01:35:56;;;;;;;12.38;6.57;;;;;;;;;;5033645;28;20049;-60
2021/11/05 01:38:23;;;;;;;11.85;6.13;;;;;;;;;;5033753;28;20053;-60
2021/11/05 01:40:50;;;;;;;13.52;6.80;;;;;;;;;;5033578;28;20057;-59
2021/11/05 01:43:18;;;;;;;14.30;7.28;;;;;;;;;;5033575;28;20041;-57
2021/11/05 01:45:47;;;;;;;11.40;6.22;;;;;;;;;;5033598;28;20079;-60
2021/11/05 01:48:15;;;;;;;13.90;6.47;;;;;;;;;;5033530;28;20055;-60
2021/11/05 01:50:42;;;;;;;11.25;6.28;;;;;;;;;;5033519;28;20422;-60
2021/11/05 01:53:10;;;;;;;12.88;6.55;;;;;;;;;;5033661;28;20045;-56
2021/11/05 01:55:37;;;;;;;11.88;6.53;;;;;;;;;;5033013;28;20049;-60
2021/11/05 01:58:04;;;;;;;13.60;6.65;;;;;;;;;;5033036;28;20049;-60
2021/11/05 02:00:34;;;;;;;11.88;6.57;;;;;;;;;;5032974;28;20053;-60
2021/11/05 02:03:01;;;;;;;13.38;6.97;;;;;;;;;;5033270;28;20413;-60
2021/11/05 02:05:29;;;;;;;11.38;6.43;;;;;;;;;;5033891;28;20053;-60
2021/11/05 02:07:57;;;;;;;12.93;6.53;;;;;;;;;;5033254;28;20072;-60
2021/11/05 02:10:26;;;;;;;13.60;7.55;;;;;;;;;;5033187;28;20049;-60
2021/11/05 02:12:55;;;;;;;14.63;7.20;;;;;;;;;;5033147;28;20045;-58
2021/11/05 02:15:22;;;;;;;13.60;7.28;;;;;;;;;;5032769;28;20049;-60
2021/11/05 02:17:51;;;;;;;12.27;6.80;;;;;;;;;;5033115;28;20053;-60
2021/11/05 02:20:21;;;;;;;12.30;6.75;;;;;;;;;;5032656;28;20402;-60
2021/11/05 02:22:49;;;;;;;10.55;6.05;;;;;;;;;;5032796;28;20049;-60
2021/11/05 02:25:17;;;;;;;12.35;6.45;;;;;;;;;;5032727;28;20046;-60
2021/11/05 02:27:44;;;;;;;12.43;6.28;;;;;;;;;;5032928;28;20414;-59
2021/11/05 02:30:12;;;;;;;11.32;6.18;;;;;;;;;;5031553;28;20063;-59
2021/11/05 02:32:41;;;;;;;15.43;6.55;;;;;;;;;;5031169;28;20064;-57
2021/11/05 02:35:08;;;;;;;15.38;6.95;;;;;;;;;;5032268;28;20053;-57
2021/11/05 02:37:35;;;;;;;12.07;6.82;;;;;;;;;;5032947;28;20057;-58
2021/11/05 02:40:04;;;;;;;11.68;6.13;;;;;;;;;;5032299;28;20049;-61
2021/11/05 02:42:31;;;;;;;12.70;6.45;;;;;;;;;;5032453;28;20427;-60
2021/11/05 02:44:58;;;;;;;15.30;6.70;;;;;;;;;;5032209;28;20494;-61
2021/11/05 02:47:28;;;;;;;13.68;6.43;;;;;;;;;;5032450;28;20048;-60
2021/11/05 02:49:58;;;;;;;15.02;6.93;;;;;;;;;;5032488;28;20057;-60
2021/11/05 02:52:25;;;;;;;12.38;7.05;;;;;;;;;;5032552;28;20053;-59
2021/11/05 02:54:52;;;;;;;15.85;7.95;;;;;;;;;;5032139;28;20045;-59
2021/11/05 02:57:21;;;;;;;16.08;8.10;;;;;;;;;;5032742;28;20437;-58
2021/11/05 02:59:48;;;;;;;14.90;8.45;;;;;;;;;;5032183;28;20042;-59
2021/11/05 03:02:15;;;;;;;15.25;7.10;;;;;;;;;;5032395;28;20053;-58
2021/11/05 03:04:42;;;;;;;14.15;7.28;;;;;;;;;;5032185;28;20568;-56
2021/11/05 03:07:10;;;;;;;13.60;7.05;;;;;;;;;;5032522;28;20061;-59
2021/11/05 03:09:39;;;;;;;12.95;6.97;;;;;;;;;;5032132;28;20092;-57
2021/11/05 03:12:07;;;;;;;13.15;7.10;;;;;;;;;;5032161;28;20068;-58
2021/11/05 03:14:37;;;;;;;13.80;7.03;;;;;;;;;;5031981;28;20502;-59
2021/11/05 03:17:05;;;;;;;14.77;6.88;;;;;;;;;;5032838;28;20084;-59
2021/11/05 03:19:32;;;;;;;13.57;6.85;;;;;;;;;;5032124;28;20135;-57
2021/11/05 03:21:59;;;;;;;17.65;7.80;;;;;;;;;;5032087;28;20050;-59
2021/11/05 03:24:26;;;;;;;17.98;8.98;;;;;;;;;;5031824;28;20053;-60
2021/11/05 03:26:53;;;;;;;17.38;7.72;;;;;;;;;;5032150;28;20487;-63
2021/11/05 03:29:20;;;;;;;18.08;8.02;;;;;;;;;;5031696;28;20144;-63
2021/11/05 03:31:49;;;;;;;16.73;8.40;;;;;;;;;;5032053;28;20052;-63
2021/11/05 03:34:15;;;;;;;16.02;8.63;;;;;;;;;;5031907;28;20045;-62
2021/11/05 03:36:42;;;;;;;19.13;8.35;;;;;;;;;;5031877;28;20042;-63
2021/11/05 03:39:09;;;;;;;23.10;9.63;;;;;;;;;;5031794;28;20053;-62
2021/11/05 03:41:36;;;;;;;20.25;10.43;;;;;;;;;;5032053;28;20517;-62
2021/11/05 03:44:04;;;;;;;23.65;11.02;;;;;;;;;;5033398;28;20526;-62
2021/11/05 03:46:34;;;;;;;17.50;8.98;;;;;;;;;;5035500;28;20053;-62
2021/11/05 03:49:02;;;;;;;24.35;10.38;;;;;;;;;;5035405;28;20057;-61
2021/11/05 03:51:29;;;;;;;18.88;9.32;;;;;;;;;;5035401;28;20515;-61
2021/11/05 03:53:56;;;;;;;20.67;10.23;;;;;;;;;;5035497;28;20059;-62
2021/11/05 03:56:24;;;;;;;20.73;10.00;;;;;;;;;;5035165;28;20045;-63
2021/11/05 03:58:52;;;;;;;23.00;11.30;;;;;;;;;;5035862;28;20474;-64
2021/11/05 04:01:20;;;;;;;15.18;8.10;;;;;;;;;;5035173;28;20518;-63
2021/11/05 04:03:47;;;;;;;16.10;7.72;;;;;;;;;;5035204;28;20053;-63
2021/11/05 04:06:17;;;;;;;14.57;7.75;;;;;;;;;;5035241;28;20502;-63
2021/11/05 04:08:44;;;;;;;16.17;7.97;;;;;;;;;;5035283;28;20054;-63
2021/11/05 04:11:12;;;;;;;14.40;7.82;;;;;;;;;;5035074;28;20434;-63
2021/11/05 04:13:39;;;;;;;15.77;7.85;;;;;;;;;;5035099;28;20443;-62
2021/11/05 04:16:06;;;;;;;14.75;8.50;;;;;;;;;;5034900;28;20482;-62
2021/11/05 04:18:33;;;;;;;14.52;6.85;;;;;;;;;;5035577;28;20049;-63
2021/11/05 04:21:00;;;;;;;14.07;7.65;;;;;;;;;;5034913;28;20057;-63
2021/11/05 04:23:29;;;;;;;13.63;6.55;;;;;;;;;;5034874;28;20049;-62
2021/11/05 04:25:56;;;;;;;11.82;6.55;;;;;;;;;;5034600;28;20054;-62
2021/11/05 04:28:23;;;;;;;13.30;7.13;;;;;;;;;;5035094;28;20053;-62
2021/11/05 04:30:50;;;;;;;12.20;6.97;;;;;;;;;;5034621;28;20486;-62
2021/11/05 04:33:17;;;;;;;16.50;7.43;;;;;;;;;;5034779;28;20052;-63
2021/11/05 04:35:44;;;;;;;15.90;7.85;;;;;;;;;;5034795;28;20049;-63
2021/11/05 04:38:11;;;;;;;15.02;7.78;;;;;;;;;;5034733;28;20053;-62
2021/11/05 04:40:40;;;;;;;15.45;6.93;;;;;;;;;;5034623;28;20430;-63
2021/11/05 04:43:07;;;;;;;12.52;6.45;;;;;;;;;;5034774;28;20045;-63
2021/11/05 04:45:34;;;;;;;14.10;6.90;;;;;;;;;;5034222;28;20053;-63
2021/11/05 04:48:01;;;;;;;13.05;6.82;;;;;;;;;;5034404;28;20060;-64
2021/11/05 04:50:29;;;;;;;14.40;6.80;;;;;;;;;;5034201;28;20059;-64
2021/11/05 04:52:57;;;;;;;14.40;7.63;;;;;;;;;;5034723;28;20046;-63
2021/11/05 04:55:24;;;;;;;13.45;7.00;;;;;;;;;;5033527;28;20054;-62
2021/11/05 04:57:52;;;;;;;14.45;7.10;;;;;;;;;;5034323;28;20411;-63
2021/11/05 05:00:21;;;;;;;14.93;7.28;;;;;;;;;;5034093;28;20041;-63
2021/11/05 05:02:48;;;;;;;12.75;7.13;;;;;;;;;;5034536;28;20053;-63
2021/11/05 05:05:16;;;;;;;15.95;7.70;;;;;;;;;;5034081;28;20056;-63
2021/11/05 05:07:43;;;;;;;15.80;7.88;;;;;;;;;;5034072;28;20045;-63
2021/11/05 05:10:11;;;;;;;15.70;7.70;;;;;;;;;;5034024;28;20136;-63
2021/11/05 05:12:39;;;;;;;13.15;6.88;;;;;;;;;;5033797;28;20051;-63
2021/11/05 05:15:11;;;;;;;13.48;7.10;;;;;;;;;;5033631;28;20050;-63
2021/11/05 05:17:38;;;;;;;14.52;7.47;;;;;;;;;;5034093;28;20487;-63
2021/11/05 05:20:08;;;;;;;14.88;6.72;;;;;;;;;;5033526;28;20060;-63
2021/11/05 05:22:35;;;;;;;13.70;7.35;;;;;;;;;;5033789;28;20053;-63
2021/11/05 05:25:03;;;;;;;17.15;7.95;;;;;;;;;;5033967;28;20414;-63
2021/11/05 05:27:30;;;;;;;15.93;8.32;;;;;;;;;;5033650;28;20045;-62
2021/11/05 05:29:57;;;;;;;15.50;7.55;;;;;;;;;;5033895;28;20048;-62
2021/11/05 05:32:26;;;;;;;14.10;7.55;;;;;;;;;;5033513;28;20490;-63
2021/11/05 05:34:53;;;;;;;15.45;7.75;;;;;;;;;;5033540;28;20053;-63
2021/11/05 05:37:20;;;;;;;13.13;7.00;;;;;;;;;;5033457;28;20049;-63
2021/11/05 05:39:46;;;;;;;16.50;7.60;;;;;;;;;;5033664;28;20041;-63
2021/11/05 05:42:13;;;;;;;16.33;7.93;;;;;;;;;;5033418;28;20248;-62
2021/11/05 05:44:40;;;;;;;18.85;9.07;;;;;;;;;;5033784;28;20392;-63
2021/11/05 05:47:08;;;;;;;17.27;8.88;;;;;;;;;;5033409;28;20054;-62
2021/11/05 05:49:37;;;;;;;20.33;10.45;;;;;;;;;;5032913;28;20080;-63
2021/11/05 05:52:04;;;;;;;22.35;10.68;;;;;;;;;;5033080;28;20053;-63
2021/11/05 05:54:32;;;;;;;23.65;10.68;;;;;;;;;;5033172;28;20046;-62
2021/11/05 05:56:59;;;;;;;26.15;11.02;;;;;;;;;;5033192;28;20061;-63
2021/11/05 05:59:26;;;;;;;24.17;11.80;;;;;;;;;;5033052;28;20088;-62
2021/11/05 06:01:53;;;;;;;26.30;12.73;;;;;;;;;;5032910;28;20061;-62
2021/11/05 06:04:21;;;;;;;30.98;12.95;;;;;;;;;;5032998;28;20415;-62
2021/11/05 06:06:50;;;;;;;24.38;11.55;;;;;;;;;;5032846;28;20520;-63
2021/11/05 06:09:17;;;;;;;22.77;11.50;;;;;;;;;;5032814;28;20049;-63
2021/11/05 06:11:44;;;;;;;24.17;11.77;;;;;;;;;;5032769;28;20048;-62
2021/11/05 06:14:12;;;;;;;28.67;12.25;;;;;;;;;;5032985;28;20050;-63
2021/11/05 06:16:39;;;;;;;24.52;12.43;;;;;;;;;;5033006;28;20053;-63
2021/11/05 06:19:07;;;;;;;27.17;12.15;;;;;;;;;;5032694;28;20495;-63
2021/11/05 06:21:34;;;;;;;26.50;11.93;;;;;;;;;;5032577;28;20052;-62
2021/11/05 06:24:02;;;;;;;22.25;10.50;;;;;;;;;;5033101;28;20476;-62
2021/11/05 06:26:29;;;;;;;26.02;12.35;;;;;;;;;;5032529;28;20054;-63
2021/11/05 06:28:58;;;;;;;23.50;11.00;;;;;;;;;;5032985;28;20049;-63
2021/11/05 06:31:25;;;;;;;22.70;10.48;;;;;;;;;;5032586;28;20056;-63
2021/11/05 06:33:52;;;;;;;22.88;11.50;;;;;;;;;;5032428;28;20054;-63
2021/11/05 06:36:20;;;;;;;20.00;9.80;;;;;;;;;;5032274;28;20060;-63
2021/11/05 06:38:48;;;;;;;15.07;7.68;;;;;;;;;;5032723;28;20058;-63
2021/11/05 06:41:16;;;;;;;19.33;8.43;;;;;;;;;;5032495;28;20053;-63
2021/11/05 06:43:44;;;;;;;15.88;7.82;;;;;;;;;;5032351;28;20053;-63
2021/11/05 06:46:11;;;;;;;15.05;7.20;;;;;;;;;;5032396;28;20136;-62
2021/11/05 06:48:38;;;;;;;21.40;8.30;;;;;;;;;;5032184;28;20414;-62
2021/11/05 06:51:05;;;;;;;12.85;6.97;;;;;;;;;;5032129;28;20052;-62
2021/11/05 06:53:32;;;;;;;16.33;8.20;;;;;;;;;;5032036;28;20045;-62
2021/11/05 06:55:59;;;;;;;18.42;8.93;;;;;;;;;;5032182;28;20053;-63
2021/11/05 06:58:29;;;;;;;18.48;8.45;;;;;;;;;;5032060;28;20049;-62
2021/11/05 07:00:57;;;;;;;14.50;8.57;;;;;;;;;;5031960;28;20049;-62
2021/11/05 07:03:24;;;;;;;16.40;9.40;;;;;;;;;;5032067;28;20054;-62
2021/11/05 07:05:52;;;;;;;16.00;8.32;;;;;;;;;;5031960;28;20422;-62
2021/11/05 07:08:19;;;;;;;17.92;8.30;;;;;;;;;;5032051;28;20103;-63
2021/11/05 07:10:47;;;;;;;18.17;8.00;;;;;;;;;;5031852;28;20072;-63
2021/11/05 07:13:14;;;;;;;21.40;9.07;;;;;;;;;;5032159;28;20235;-67
2021/11/05 07:15:43;;;;;;;14.18;7.78;;;;;;;;;;5031664;28;20410;-64
2021/11/05 07:18:10;;;;;;;18.33;9.95;;;;;;;;;;5031837;28;20057;-63
2021/11/05 07:20:37;;;;;;;17.58;8.35;;;;;;;;;;5035848;28;20053;-63
2021/11/05 07:23:04;;;;;;;16.08;8.30;;;;;;;;;;5035476;28;20057;-63
2021/11/05 07:25:32;;;;;;;22.17;9.27;;;;;;;;;;5035403;28;20045;-63
2021/11/05 07:27:59;;;;;;;17.50;8.65;;;;;;;;;;5035825;28;20063;-64
2021/11/05 07:30:26;;;;;;;20.20;8.50;;;;;;;;;;5035739;28;20056;-63
2021/11/05 07:32:55;;;;;;;17.75;9.15;;;;;;;;;;5035824;28;20112;-62
2021/11/05 07:35:23;;;;;;;17.58;9.30;;;;;;;;;;5035665;28;20056;-62
2021/11/05 07:37:51;;;;;;;18.25;9.00;;;;;;;;;;5035980;28;20050;-63
2021/11/05 07:40:19;;;;;;;17.70;8.93;;;;;;;;;;5035529;28;20052;-63
2021/11/05 07:42:47;;;;;;;22.45;10.27;;;;;;;;;;5035443;28;20049;-63
2021/11/05 07:45:16;;;;;;;19.13;9.15;;;;;;;;;;5035244;28;20064;-63
2021/11/05 07:47:45;;;;;;;22.73;9.88;;;;;;;;;;5035784;28;20148;-63
2021/11/05 07:50:15;;;;;;;20.40;9.88;;;;;;;;;;5035488;28;20140;-63
2021/11/05 07:52:43;;;;;;;20.13;9.98;;;;;;;;;;5035408;28;20144;-62
2021/11/05 07:55:10;;;;;;;22.40;9.82;;;;;;;;;;5035067;28;20068;-63
2021/11/05 07:57:38;;;;;;;24.73;11.05;;;;;;;;;;5035378;28;20049;-63
2021/11/05 08:00:05;;;;;;;20.27;9.50;;;;;;;;;;5035296;28;20132;-63
2021/11/05 08:02:33;;;;;;;23.23;11.07;;;;;;;;;;5034875;28;20049;-68
2021/11/05 08:05:03;;;;;;;23.17;10.23;;;;;;;;;;5035214;28;20410;-63
2021/11/05 08:07:31;;;;;;;26.15;10.93;;;;;;;;;;5035427;28;20545;-62
2021/11/05 08:09:58;;;;;;;20.55;9.13;;;;;;;;;;5035308;28;20065;-62
2021/11/05 08:12:25;;;;;;;19.38;9.48;;;;;;;;;;5035734;28;20059;-62
2021/11/05 08:14:52;;;;;;;20.52;8.35;;;;;;;;;;5035301;28;20084;-62
2021/11/05 08:17:19;;;;;;;20.42;8.95;;;;;;;;;;5034951;28;20045;-61
2021/11/05 08:19:46;;;;;;;20.63;8.65;;;;;;;;;;5035251;28;20060;-64
2021/11/05 08:22:17;;;;;;;20.20;8.88;;;;;;;;;;5034874;28;20457;-63
2021/11/05 08:24:45;;;;;;;16.52;8.63;;;;;;;;;;5034972;28;20081;-62
2021/11/05 08:27:13;;;;;;;17.92;8.95;;;;;;;;;;5035026;28;20530;-62
2021/11/05 08:29:40;;;;;;;18.15;8.00;;;;;;;;;;5034916;28;20055;-64
2021/11/05 08:32:09;;;;;;;13.88;7.55;;;;;;;;;;5034808;28;20049;-63
2021/11/05 08:34:38;;;;;;;17.17;8.18;;;;;;;;;;5034246;28;20057;-63
2021/11/05 08:37:06;;;;;;;17.73;7.75;;;;;;;;;;5034426;28;20059;-62
2021/11/05 08:39:33;;;;;;;18.38;8.48;;;;;;;;;;5034339;28;20088;-62
2021/11/05 08:42:01;;;;;;;14.40;7.70;;;;;;;;;;5034648;28;20540;-63
2021/11/05 08:44:30;;;;;;;15.48;7.82;;;;;;;;;;5034666;28;20099;-64
2021/11/05 08:46:57;;;;;;;18.20;7.85;;;;;;;;;;5034289;28;20069;-66
2021/11/05 08:49:24;;;;;;;17.45;9.25;;;;;;;;;;5035204;28;20132;-68
2021/11/05 08:51:53;;;;;;;16.90;8.30;;;;;;;;;;5034771;28;20049;-65
2021/11/05 08:54:20;;;;;;;16.13;7.95;;;;;;;;;;5034528;28;20056;-65
2021/11/05 08:56:47;;;;;;;17.60;8.02;;;;;;;;;;5034078;28;20132;-67
2021/11/05 08:59:18;;;;;;;15.93;8.27;;;;;;;;;;5034230;28;20053;-65
2021/11/05 09:01:45;;;;;;;;;;;;;;;;;;5034561;28;20374;-67
2021/11/05 09:04:12;;;;;;;13.65;6.90;;;;;;;;;;5034436;28;20017;-66
2021/11/05 09:06:39;;;;;;;14.27;7.20;;;;;;;;;;5034700;28;20053;-67
2021/11/05 09:09:06;;;;;;;15.02;7.53;;;;;;;;;;5034139;28;20528;-65
2021/11/05 09:11:34;;;;;;;16.63;8.50;;;;;;;;;;5034831;28;20054;-67
2021/11/05 09:14:02;;;;;;;16.67;8.68;;;;;;;;;;5034113;28;20049;-67
2021/11/05 09:16:30;;;;;;;25.30;12.77;;;;;;;;;;5033722;28;20140;-66
2021/11/05 09:19:01;;;;;;;17.42;7.78;;;;;;;;;;5034233;28;20053;-67
2021/11/05 09:21:28;;;;;;;;;;;;;;;;;;5035019;28;20502;-65
2021/11/05 09:23:55;;;;;;;15.70;7.45;;;;;;;;;;5033695;28;19925;-66
2021/11/05 09:26:24;;;;;;;14.13;7.07;;;;;;;;;;5045077;23;20480;-63
2021/11/05 09:28:51;;;;;;;14.32;6.75;;;;;;;;;;5014469;28;20104;-64
2021/11/05 09:31:18;;;;;;;18.58;7.75;;;;;;;;;;5014249;28;20054;-64
2021/11/05 09:33:46;;;;;;;17.63;7.32;;;;;;;;;;5013918;28;20573;-65
2021/11/05 09:36:15;;;;;;;17.48;7.68;;;;;;;;;;5014606;28;20046;-65
2021/11/05 09:38:42;;;;;;;14.50;7.15;;;;;;;;;;5014046;28;20050;-64
2021/11/05 09:41:10;;;;;;;16.00;7.38;;;;;;;;;;5013511;28;20104;-65
2021/11/05 09:43:39;;;;;;;14.90;7.63;;;;;;;;;;5014034;28;20486;-65
2021/11/05 09:46:07;;;;;;;15.95;6.85;;;;;;;;;;5013809;28;20054;-65
2021/11/05 09:48:37;;;;;;;15.20;7.68;;;;;;;;;;5013572;28;20495;-64
2021/11/05 09:51:07;;;;;;;14.82;6.97;;;;;;;;;;5013184;28;20136;-64
2021/11/05 09:53:37;;;;;;;19.33;8.32;;;;;;;;;;5013340;28;20068;-65
2021/11/05 09:56:06;;;;;;;14.50;6.63;;;;;;;;;;5013133;28;20128;-64
2021/11/05 09:58:33;;;;;;;15.30;6.93;;;;;;;;;;5013487;28;20110;-64
2021/11/05 10:01:00;;;;;;;21.08;10.27;;;;;;;;;;5013165;28;20092;-64
2021/11/05 10:03:28;;;;;;;16.55;8.00;;;;;;;;;;5013213;28;20145;-64
2021/11/05 10:05:55;;;;;;;14.43;7.70;;;;;;;;;;5012960;28;20148;-64
2021/11/05 10:08:32;;;;;;;13.82;7.15;;;;;;;;;;5013283;28;20467;-64
2021/11/05 10:10:59;;;;;;;14.98;6.65;;;;;;;;;;5012683;28;20052;-64
2021/11/05 10:13:27;;;;;;;14.77;6.80;;;;;;;;;;5013033;28;20064;-64
2021/11/05 10:15:56;;;;;;;14.40;6.18;;;;;;;;;;5013067;28;20050;-64
2021/11/05 10:18:26;;;;;;;14.70;6.78;;;;;;;;;;5013260;28;20070;-64
2021/11/05 10:21:09;;;;;;;24.30;9.63;;;;;;;;;;5012758;28;20046;-65
2021/11/05 10:23:39;;;;;;;12.60;6.47;;;;;;;;;;5012807;28;20056;-64
2021/11/05 10:26:07;;;;;;;14.18;6.10;;;;;;;;;;5012795;28;20507;-64
2021/11/05 10:28:39;;;;;;;17.13;7.82;;;;;;;;;;5012851;28;20158;-65
2021/11/05 10:31:08;;;;;;;12.75;6.47;;;;;;;;;;5012990;28;20053;-64
2021/11/05 10:33:41;;;;;;;12.25;6.13;;;;;;;;;;5012766;28;20072;-64
2021/11/05 10:36:10;;;;;;;13.43;5.78;;;;;;;;;;5012612;28;20053;-66
2021/11/05 10:38:43;;;;;;;12.75;6.60;;;;;;;;;;5012912;28;20046;-64
2021/11/05 10:41:15;;;;;;;11.20;5.88;;;;;;;;;;5012853;28;20389;-65
2021/11/05 10:43:44;;;;;;;11.95;5.30;;;;;;;;;;5012295;28;20507;-64
2021/11/05 10:46:28;;;;;;;11.20;6.40;;;;;;;;;;5012461;28;20081;-64
2021/11/05 10:48:58;;;;;;;12.25;4.90;;;;;;;;;;5012877;28;20057;-65
2021/11/05 10:51:27;;;;;;;11.38;5.50;;;;;;;;;;5012306;28;20080;-64
2021/11/05 10:53:56;;;;;;;9.77;4.68;;;;;;;;;;5011580;28;20093;-64
2021/11/05 10:56:32;;;;;;;9.80;4.93;;;;;;;;;;5012663;28;20486;-64
2021/11/05 10:59:04;;;;;;;9.98;4.53;;;;;;;;;;5012438;28;20050;-64
2021/11/05 11:01:39;;;;;;;12.15;5.10;;;;;;;;;;5012227;28;20045;-65
2021/11/05 11:04:11;;;;;;;10.95;5.47;;;;;;;;;;5012704;28;20054;-65
2021/11/05 11:06:41;;;;;;;17.90;8.15;;;;;;;;;;5012105;28;20124;-63
2021/11/05 11:09:11;;;;;;;13.45;7.70;;;;;;;;;;5012453;28;20049;-64
2021/11/05 11:11:40;;;;;;;10.75;5.38;;;;;;;;;;5012319;28;20061;-65
2021/11/05 11:14:08;;;;;;;12.77;5.55;;;;;;;;;;5012202;28;20050;-62
2021/11/05 11:16:38;;;;;;;9.70;4.47;;;;;;;;;;5011001;28;20064;-64
2021/11/05 11:19:08;;;;;;;9.05;5.00;;;;;;;;;;5010989;28;20081;-64
2021/11/05 11:21:37;;;;;;;12.23;6.27;;;;;;;;;;5012526;28;20054;-65
2021/11/05 11:24:06;;;;;;;10.98;5.90;;;;;;;;;;5012405;28;20311;-63
2021/11/05 11:26:36;;;;;;;9.13;5.65;;;;;;;;;;5011906;28;20140;-62
2021/11/05 11:29:04;;;;;;;9.60;5.00;;;;;;;;;;5012419;28;20058;-63
2021/11/05 11:31:31;;;;;;;10.07;5.70;;;;;;;;;;5012027;28;20495;-63
2021/11/05 11:34:02;;;;;;;10.35;5.35;;;;;;;;;;5011973;28;20617;-62
2021/11/05 11:36:29;;;;;;;;;;;;;;;;;;5012580;28;20482;-64
2021/11/05 11:38:58;;;;;;;9.77;5.07;;;;;;;;;;5012617;28;19944;-64
2021/11/05 11:41:26;;;;;;;9.70;4.63;;;;;;;;;;5012057;28;20138;-61
2021/11/05 11:43:55;;;;;;;10.23;5.00;;;;;;;;;;5012333;28;20049;-63
2021/11/05 11:46:22;;;;;;;9.77;5.03;;;;;;;;;;5012350;28;20077;-65
2021/11/05 11:48:51;;;;;;;10.75;5.15;;;;;;;;;;5012402;28;20046;-63
2021/11/05 11:51:43;;;;;;;15.48;7.13;;;;;;;;;;5012442;28;20411;-64
2021/11/05 11:54:31;;;;;;;15.82;6.78;;;;;;;;;;5012154;28;20050;-63
2021/11/05 11:57:12;;;;;;;12.25;5.82;;;;;;;;;;5011488;28;20056;-62
2021/11/05 11:59:41;;;;;;;11.15;5.72;;;;;;;;;;5012218;28;20460;-62
2021/11/05 12:02:31;;;;;;;11.40;5.43;;;;;;;;;;5011887;28;20046;-63
2021/11/05 12:04:59;;;;;;;12.18;5.22;;;;;;;;;;5012860;28;20491;-63
2021/11/05 12:07:26;;;;;;;10.02;5.28;;;;;;;;;;5015008;28;20140;-64
2021/11/05 12:09:53;;;;;;;10.32;4.75;;;;;;;;;;5015770;28;20053;-64
2021/11/05 12:12:40;;;;;;;8.95;3.97;;;;;;;;;;5015183;28;20045;-64
2021/11/05 12:15:14;;;;;;;8.63;3.83;;;;;;;;;;5010296;28;20140;-63
2021/11/05 12:18:11;;;;;;;7.93;3.95;;;;;;;;;;5015870;28;20058;-64
2021/11/05 12:20:42;;;;;;;9.27;4.53;;;;;;;;;;5010235;28;21744;-64
2021/11/05 12:23:27;;;;;;;8.40;4.32;;;;;;;;;;5015059;28;20045;-64
2021/11/05 12:25:59;;;;;;;9.02;4.30;;;;;;;;;;5015255;28;20427;-63
2021/11/05 12:28:38;;;;;;;7.72;3.88;;;;;;;;;;5015059;28;20046;-63
2021/11/05 12:31:27;;;;;;;8.65;3.97;;;;;;;;;;5014908;28;20494;-64
2021/11/05 12:33:56;;;;;;;7.15;3.85;;;;;;;;;;5015330;28;20133;-65
2021/11/05 12:36:48;;;;;;;6.30;3.20;;;;;;;;;;5014920;28;20414;-65
2021/11/05 12:39:15;;;;;;;5.75;1.95;;;;;;;;;;5015932;28;20482;-64
2021/11/05 12:41:59;;;;;;;2.95;1.40;;;;;;;;;;5015296;28;20477;-64
2021/11/05 12:44:28;;;;;;;2.85;1.27;;;;;;;;;;5014810;28;20424;-64
2021/11/05 12:46:57;;;;;;;1.73;0.85;;;;;;;;;;5015260;28;20341;-63
2021/11/05 12:49:24;;;;;;;2.95;1.40;;;;;;;;;;5015094;28;20050;-63
2021/11/05 12:51:53;;;;;;;2.58;1.27;;;;;;;;;;5015090;28;20602;-66
2021/11/05 12:54:22;;;;;;;2.40;1.10;;;;;;;;;;5015055;28;20050;-64
2021/11/05 12:56:52;;;;;;;2.97;1.42;;;;;;;;;;5014987;28;20050;-64
2021/11/05 12:59:21;;;;;;;2.73;1.13;;;;;;;;;;5014321;28;20057;-65
2021/11/05 13:01:53;;;;;;;3.67;1.83;;;;;;;;;;5014364;28;20370;-64
2021/11/05 13:04:22;;;;;;;3.67;1.58;;;;;;;;;;5014570;28;20054;-63
2021/11/05 13:06:55;;;;;;;3.58;1.65;;;;;;;;;;5014193;28;20384;-65
2021/11/05 13:09:35;;;;;;;4.47;1.70;;;;;;;;;;5014612;28;20078;-63
2021/11/05 13:12:11;;;;;;;5.25;1.85;;;;;;;;;;5014216;28;20140;-63
2021/11/05 13:14:55;;;;;;;3.92;1.95;;;;;;;;;;5014169;28;20081;-64
2021/11/05 13:17:27;;;;;;;5.63;2.22;;;;;;;;;;5010226;28;20058;-64
2021/11/05 13:19:59;;;;;;;4.90;2.10;;;;;;;;;;5014323;28;20125;-63
2021/11/05 13:22:29;;;;;;;5.28;2.10;;;;;;;;;;5014058;28;20411;-64
2021/11/05 13:25:14;;;;;;;5.13;2.40;;;;;;;;;;5014017;28;20546;-64
2021/11/05 13:27:43;;;;;;;4.93;2.40;;;;;;;;;;5014688;28;20270;-63
2021/11/05 13:30:10;;;;;;;5.25;2.30;;;;;;;;;;5014211;28;20061;-64
2021/11/05 13:32:38;;;;;;;4.60;2.38;;;;;;;;;;5014438;28;20054;-63
2021/11/05 13:35:08;;;;;;;5.75;2.70;;;;;;;;;;5013833;28;20100;-61
2021/11/05 13:37:35;;;;;;;7.03;2.65;;;;;;;;;;5014391;28;20046;-64
2021/11/05 13:40:04;;;;;;;7.80;3.30;;;;;;;;;;5013698;28;20045;-65
2021/11/05 13:42:31;;;;;;;7.93;3.58;;;;;;;;;;5013703;28;20134;-63
2021/11/05 13:45:16;;;;;;;8.02;4.20;;;;;;;;;;5013679;28;20046;-62
2021/11/05 13:47:46;;;;;;;9.68;4.75;;;;;;;;;;5014228;28;20052;-63
2021/11/05 13:50:18;;;;;;;9.47;4.63;;;;;;;;;;5014059;28;20046;-63
2021/11/05 13:56:14;;;;;;;8.40;4.85;;;;;;;;;;5011837;28;20451;-65
2021/11/05 13:58:41;;;;;;;9.75;4.95;;;;;;;;;;5013563;28;20052;-64
2021/11/05 14:01:17;;;;;;;8.45;4.50;;;;;;;;;;5013486;28;20057;-64
2021/11/05 14:03:44;;;;;;;8.60;4.22;;;;;;;;;;5013431;28;20049;-64
2021/11/05 14:06:14;;;;;;;8.85;4.57;;;;;;;;;;5013399;28;20045;-63
2021/11/05 14:08:51;;;;;;;7.53;3.95;;;;;;;;;;5013629;28;20084;-64
2021/11/05 14:11:32;;;;;;;8.90;5.35;;;;;;;;;;5013644;28;20050;-63
2021/11/05 14:14:00;;;;;;;10.65;5.25;;;;;;;;;;5013706;28;20108;-63
2021/11/05 14:16:28;;;;;;;8.23;4.55;;;;;;;;;;5012909;28;20049;-64
2021/11/05 14:19:09;;;;;;;11.57;5.35;;;;;;;;;;5012714;28;20054;-64
2021/11/05 14:21:38;;;;;;;10.98;5.93;;;;;;;;;;5012850;28;20052;-64
2021/11/05 14:24:15;;;;;;;14.55;6.32;;;;;;;;;;5012985;28;20129;-63
2021/11/05 14:26:43;;;;;;;12.23;6.60;;;;;;;;;;5012715;28;20056;-60
2021/11/05 14:29:13;;;;;;;12.25;6.43;;;;;;;;;;5012895;28;20108;-64
2021/11/05 14:31:55;;;;;;;16.00;7.97;;;;;;;;;;5012814;28;20100;-64
2021/11/05 14:34:22;;;;;;;14.43;7.55;;;;;;;;;;5013266;28;20053;-62
2021/11/05 14:39:49;;;;;;;13.07;7.00;;;;;;;;;;5102058;27;20383;-63
2021/11/05 14:42:21;;;;;;;10.68;6.18;;;;;;;;;;5069315;28;20052;-63
2021/11/05 14:44:50;;;;;;;14.95;8.30;;;;;;;;;;5069535;28;20091;-64
2021/11/05 14:47:18;;;;;;;13.77;7.93;;;;;;;;;;5069312;28;20049;-65